sensor_id;sensor_type;location;lat;lon;timestamp;P1;durP1;ratioP1;P2;durP2;ratioP2
60472;SDS011;46318;52.716;6.444;2023-05-01T00:01:41;11.70;;;7.28;;
60472;SDS011;46318;52.716;6.444;2023-05-01T00:04:07;10.25;;;7.47;;
60472;SDS011;46318;52.716;6.444;2023-05-01T00:06:32;11.65;;;7.13;;
60472;SDS011;46318;52.716;6.444;2023-05-01T00:08:58;10.88;;;7.60;;
60472;SDS011;46318;52.716;6.444;2023-05-01T00:11:24;11.07;;;7.72;;
60472;SDS011;46318;52.716;6.444;2023-05-01T00:13:50;9.50;;;7.22;;
60472;SDS011;46318;52.716;6.444;2023-05-01T00:16:18;9.75;;;7.45;;
60472;SDS011;46318;52.716;6.444;2023-05-01T00:18:44;10.50;;;7.90;;
60472;SDS011;46318;52.716;6.444;2023-05-01T00:21:09;10.57;;;7.63;;
60472;SDS011;46318;52.716;6.444;2023-05-01T00:23:35;9.93;;;7.47;;
60472;SDS011;46318;52.716;6.444;2023-05-01T00:26:01;9.07;;;7.78;;
60472;SDS011;46318;52.716;6.444;2023-05-01T00:28:27;11.05;;;7.47;;
60472;SDS011;46318;52.716;6.444;2023-05-01T00:30:53;11.95;;;7.32;;
60472;SDS011;46318;52.716;6.444;2023-05-01T00:33:19;10.38;;;7.45;;
60472;SDS011;46318;52.716;6.444;2023-05-01T00:35:45;9.60;;;7.25;;
60472;SDS011;46318;52.716;6.444;2023-05-01T00:38:11;8.15;;;7.03;;
60472;SDS011;46318;52.716;6.444;2023-05-01T00:40:40;7.95;;;6.43;;
60472;SDS011;46318;52.716;6.444;2023-05-01T00:43:07;11.90;;;7.63;;
60472;SDS011;46318;52.716;6.444;2023-05-01T00:45:35;11.73;;;7.07;;
60472;SDS011;46318;52.716;6.444;2023-05-01T00:48:00;9.38;;;7.20;;
60472;SDS011;46318;52.716;6.444;2023-05-01T00:50:27;7.10;;;6.32;;
60472;SDS011;46318;52.716;6.444;2023-05-01T00:52:53;8.48;;;6.78;;
60472;SDS011;46318;52.716;6.444;2023-05-01T00:55:19;7.15;;;6.45;;
60472;SDS011;46318;52.716;6.444;2023-05-01T00:57:46;8.35;;;7.00;;
60472;SDS011;46318;52.716;6.444;2023-05-01T01:00:12;10.48;;;6.65;;
60472;SDS011;46318;52.716;6.444;2023-05-01T01:02:38;8.70;;;5.95;;
60472;SDS011;46318;52.716;6.444;2023-05-01T01:05:04;8.73;;;6.40;;
60472;SDS011;46318;52.716;6.444;2023-05-01T01:07:35;11.00;;;6.65;;
60472;SDS011;46318;52.716;6.444;2023-05-01T01:13:50;8.18;;;6.45;;
60472;SDS011;46318;52.716;6.444;2023-05-01T01:22:24;9.30;;;6.25;;
60472;SDS011;46318;52.716;6.444;2023-05-01T01:30:31;7.43;;;6.68;;
60472;SDS011;46318;52.716;6.444;2023-05-01T01:36:19;9.75;;;6.10;;
60472;SDS011;46318;52.716;6.444;2023-05-01T01:39:02;9.25;;;6.90;;
60472;SDS011;46318;52.716;6.444;2023-05-01T01:41:49;8.27;;;6.45;;
60472;SDS011;46318;52.716;6.444;2023-05-01T01:46:58;7.93;;;6.43;;
60472;SDS011;46318;52.716;6.444;2023-05-01T01:49:30;7.07;;;6.05;;
60472;SDS011;46318;52.716;6.444;2023-05-01T01:52:00;9.25;;;6.72;;
60472;SDS011;46318;52.716;6.444;2023-05-01T01:54:37;10.40;;;6.82;;
60472;SDS011;46318;52.716;6.444;2023-05-01T01:57:10;9.20;;;6.82;;
60472;SDS011;46318;52.716;6.444;2023-05-01T01:59:38;8.32;;;6.50;;
60472;SDS011;46318;52.716;6.444;2023-05-01T02:02:06;9.90;;;6.95;;
60472;SDS011;46318;52.716;6.444;2023-05-01T02:04:32;7.57;;;6.13;;
60472;SDS011;46318;52.716;6.444;2023-05-01T02:07:00;9.80;;;6.97;;
60472;SDS011;46318;52.716;6.444;2023-05-01T02:09:28;10.10;;;6.78;;
60472;SDS011;46318;52.716;6.444;2023-05-01T02:11:55;9.05;;;6.47;;
60472;SDS011;46318;52.716;6.444;2023-05-01T02:14:23;10.88;;;6.38;;
60472;SDS011;46318;52.716;6.444;2023-05-01T02:16:51;9.30;;;6.72;;
60472;SDS011;46318;52.716;6.444;2023-05-01T02:19:17;10.27;;;6.78;;
60472;SDS011;46318;52.716;6.444;2023-05-01T02:21:45;10.98;;;6.75;;
60472;SDS011;46318;52.716;6.444;2023-05-01T02:24:12;7.03;;;6.28;;
60472;SDS011;46318;52.716;6.444;2023-05-01T02:26:42;9.70;;;6.78;;
60472;SDS011;46318;52.716;6.444;2023-05-01T02:29:14;10.25;;;6.95;;
60472;SDS011;46318;52.716;6.444;2023-05-01T02:31:39;9.98;;;6.90;;
60472;SDS011;46318;52.716;6.444;2023-05-01T02:34:05;8.90;;;6.70;;
60472;SDS011;46318;52.716;6.444;2023-05-01T02:36:31;8.35;;;6.30;;
60472;SDS011;46318;52.716;6.444;2023-05-01T02:38:58;9.40;;;6.32;;
60472;SDS011;46318;52.716;6.444;2023-05-01T02:41:24;9.20;;;7.00;;
60472;SDS011;46318;52.716;6.444;2023-05-01T02:43:53;9.63;;;6.38;;
60472;SDS011;46318;52.716;6.444;2023-05-01T02:46:25;10.52;;;7.28;;
60472;SDS011;46318;52.716;6.444;2023-05-01T02:48:54;9.93;;;7.00;;
60472;SDS011;46318;52.716;6.444;2023-05-01T02:51:21;9.68;;;6.50;;
60472;SDS011;46318;52.716;6.444;2023-05-01T02:53:48;11.23;;;7.00;;
60472;SDS011;46318;52.716;6.444;2023-05-01T02:56:14;11.10;;;7.10;;
60472;SDS011;46318;52.716;6.444;2023-05-01T02:58:40;11.70;;;6.55;;
60472;SDS011;46318;52.716;6.444;2023-05-01T03:01:06;10.63;;;7.40;;
60472;SDS011;46318;52.716;6.444;2023-05-01T03:03:32;9.32;;;7.00;;
60472;SDS011;46318;52.716;6.444;2023-05-01T03:05:58;12.00;;;7.13;;
60472;SDS011;46318;52.716;6.444;2023-05-01T03:08:24;9.40;;;6.95;;
60472;SDS011;46318;52.716;6.444;2023-05-01T03:10:50;11.45;;;7.57;;
60472;SDS011;46318;52.716;6.444;2023-05-01T03:13:16;8.93;;;6.78;;
60472;SDS011;46318;52.716;6.444;2023-05-01T03:15:42;7.72;;;6.15;;
60472;SDS011;46318;52.716;6.444;2023-05-01T03:18:09;12.07;;;6.72;;
60472;SDS011;46318;52.716;6.444;2023-05-01T03:20:35;9.02;;;6.68;;
60472;SDS011;46318;52.716;6.444;2023-05-01T03:23:00;11.27;;;7.15;;
60472;SDS011;46318;52.716;6.444;2023-05-01T03:25:26;11.35;;;7.00;;
60472;SDS011;46318;52.716;6.444;2023-05-01T03:27:52;9.50;;;6.65;;
60472;SDS011;46318;52.716;6.444;2023-05-01T03:30:18;10.15;;;7.30;;
60472;SDS011;46318;52.716;6.444;2023-05-01T03:32:44;10.15;;;7.07;;
60472;SDS011;46318;52.716;6.444;2023-05-01T03:35:09;10.38;;;6.93;;
60472;SDS011;46318;52.716;6.444;2023-05-01T03:37:35;10.85;;;6.50;;
60472;SDS011;46318;52.716;6.444;2023-05-01T03:40:01;11.85;;;7.13;;
60472;SDS011;46318;52.716;6.444;2023-05-01T03:42:27;10.65;;;7.03;;
60472;SDS011;46318;52.716;6.444;2023-05-01T03:44:53;9.82;;;7.15;;
60472;SDS011;46318;52.716;6.444;2023-05-01T03:47:19;9.65;;;6.78;;
60472;SDS011;46318;52.716;6.444;2023-05-01T03:49:45;12.00;;;7.72;;
60472;SDS011;46318;52.716;6.444;2023-05-01T03:52:11;9.73;;;6.82;;
60472;SDS011;46318;52.716;6.444;2023-05-01T03:54:37;10.93;;;7.30;;
60472;SDS011;46318;52.716;6.444;2023-05-01T03:57:03;9.52;;;7.20;;
60472;SDS011;46318;52.716;6.444;2023-05-01T03:59:29;13.30;;;7.43;;
60472;SDS011;46318;52.716;6.444;2023-05-01T04:01:55;11.30;;;7.35;;
60472;SDS011;46318;52.716;6.444;2023-05-01T04:04:21;11.18;;;7.75;;
60472;SDS011;46318;52.716;6.444;2023-05-01T04:06:46;10.52;;;7.82;;
60472;SDS011;46318;52.716;6.444;2023-05-01T04:09:14;12.30;;;7.65;;
60472;SDS011;46318;52.716;6.444;2023-05-01T04:11:40;9.05;;;7.25;;
60472;SDS011;46318;52.716;6.444;2023-05-01T04:14:06;9.40;;;6.90;;
60472;SDS011;46318;52.716;6.444;2023-05-01T04:16:32;9.85;;;6.85;;
60472;SDS011;46318;52.716;6.444;2023-05-01T04:18:58;8.30;;;6.93;;
60472;SDS011;46318;52.716;6.444;2023-05-01T04:21:23;11.00;;;7.35;;
60472;SDS011;46318;52.716;6.444;2023-05-01T04:23:50;11.20;;;7.30;;
60472;SDS011;46318;52.716;6.444;2023-05-01T04:26:16;11.05;;;7.35;;
60472;SDS011;46318;52.716;6.444;2023-05-01T04:28:41;11.95;;;7.35;;
60472;SDS011;46318;52.716;6.444;2023-05-01T04:31:08;10.40;;;7.07;;
60472;SDS011;46318;52.716;6.444;2023-05-01T04:33:33;11.23;;;7.57;;
60472;SDS011;46318;52.716;6.444;2023-05-01T04:35:59;13.15;;;7.88;;
60472;SDS011;46318;52.716;6.444;2023-05-01T04:38:25;11.25;;;8.15;;
60472;SDS011;46318;52.716;6.444;2023-05-01T04:40:52;10.82;;;7.13;;
60472;SDS011;46318;52.716;6.444;2023-05-01T04:43:21;10.23;;;7.95;;
60472;SDS011;46318;52.716;6.444;2023-05-01T04:45:47;11.25;;;7.32;;
60472;SDS011;46318;52.716;6.444;2023-05-01T04:48:13;12.38;;;7.65;;
60472;SDS011;46318;52.716;6.444;2023-05-01T04:50:38;10.52;;;7.38;;
60472;SDS011;46318;52.716;6.444;2023-05-01T04:53:04;10.95;;;8.13;;
60472;SDS011;46318;52.716;6.444;2023-05-01T04:55:30;11.48;;;7.65;;
60472;SDS011;46318;52.716;6.444;2023-05-01T04:57:56;12.60;;;7.97;;
60472;SDS011;46318;52.716;6.444;2023-05-01T05:00:22;12.20;;;7.38;;
60472;SDS011;46318;52.716;6.444;2023-05-01T05:02:48;8.55;;;7.53;;
60472;SDS011;46318;52.716;6.444;2023-05-01T05:05:14;12.07;;;8.20;;
60472;SDS011;46318;52.716;6.444;2023-05-01T05:07:40;10.65;;;7.15;;
60472;SDS011;46318;52.716;6.444;2023-05-01T05:10:05;11.88;;;8.23;;
60472;SDS011;46318;52.716;6.444;2023-05-01T05:12:32;11.90;;;7.97;;
60472;SDS011;46318;52.716;6.444;2023-05-01T05:14:58;11.98;;;7.88;;
60472;SDS011;46318;52.716;6.444;2023-05-01T05:17:23;12.00;;;8.77;;
60472;SDS011;46318;52.716;6.444;2023-05-01T05:19:49;12.13;;;8.38;;
60472;SDS011;46318;52.716;6.444;2023-05-01T05:22:15;11.48;;;7.32;;
60472;SDS011;46318;52.716;6.444;2023-05-01T05:24:41;10.77;;;8.20;;
60472;SDS011;46318;52.716;6.444;2023-05-01T05:27:08;14.90;;;8.63;;
60472;SDS011;46318;52.716;6.444;2023-05-01T05:29:34;13.27;;;8.32;;
60472;SDS011;46318;52.716;6.444;2023-05-01T05:32:00;14.93;;;9.20;;
60472;SDS011;46318;52.716;6.444;2023-05-01T05:34:26;12.35;;;7.88;;
60472;SDS011;46318;52.716;6.444;2023-05-01T05:36:52;16.77;;;9.90;;
60472;SDS011;46318;52.716;6.444;2023-05-01T05:39:19;15.60;;;9.27;;
60472;SDS011;46318;52.716;6.444;2023-05-01T05:41:47;12.70;;;9.07;;
60472;SDS011;46318;52.716;6.444;2023-05-01T05:44:14;11.07;;;8.25;;
60472;SDS011;46318;52.716;6.444;2023-05-01T05:46:40;12.57;;;8.73;;
60472;SDS011;46318;52.716;6.444;2023-05-01T05:49:06;13.23;;;8.95;;
60472;SDS011;46318;52.716;6.444;2023-05-01T05:51:32;11.10;;;8.07;;
60472;SDS011;46318;52.716;6.444;2023-05-01T05:53:57;11.63;;;7.90;;
60472;SDS011;46318;52.716;6.444;2023-05-01T05:56:23;13.05;;;8.60;;
60472;SDS011;46318;52.716;6.444;2023-05-01T05:58:49;11.63;;;8.48;;
60472;SDS011;46318;52.716;6.444;2023-05-01T06:01:15;14.77;;;8.63;;
60472;SDS011;46318;52.716;6.444;2023-05-01T06:03:41;14.20;;;8.60;;
60472;SDS011;46318;52.716;6.444;2023-05-01T06:06:07;13.80;;;7.80;;
60472;SDS011;46318;52.716;6.444;2023-05-01T06:08:33;12.40;;;8.43;;
60472;SDS011;46318;52.716;6.444;2023-05-01T06:11:01;11.07;;;7.90;;
60472;SDS011;46318;52.716;6.444;2023-05-01T06:13:27;13.02;;;7.65;;
60472;SDS011;46318;52.716;6.444;2023-05-01T06:15:53;10.68;;;8.02;;
60472;SDS011;46318;52.716;6.444;2023-05-01T06:18:19;11.75;;;8.50;;
60472;SDS011;46318;52.716;6.444;2023-05-01T06:20:45;11.73;;;8.18;;
60472;SDS011;46318;52.716;6.444;2023-05-01T06:23:11;11.27;;;7.97;;
60472;SDS011;46318;52.716;6.444;2023-05-01T06:25:38;15.55;;;8.40;;
60472;SDS011;46318;52.716;6.444;2023-05-01T06:28:04;13.93;;;8.88;;
60472;SDS011;46318;52.716;6.444;2023-05-01T06:30:30;12.73;;;8.88;;
60472;SDS011;46318;52.716;6.444;2023-05-01T06:32:55;10.52;;;7.95;;
60472;SDS011;46318;52.716;6.444;2023-05-01T06:35:21;12.30;;;7.38;;
60472;SDS011;46318;52.716;6.444;2023-05-01T06:37:47;9.05;;;7.95;;
60472;SDS011;46318;52.716;6.444;2023-05-01T06:40:13;12.63;;;8.13;;
60472;SDS011;46318;52.716;6.444;2023-05-01T06:42:39;9.82;;;8.05;;
60472;SDS011;46318;52.716;6.444;2023-05-01T06:45:06;14.40;;;8.48;;
60472;SDS011;46318;52.716;6.444;2023-05-01T06:47:32;12.30;;;8.18;;
60472;SDS011;46318;52.716;6.444;2023-05-01T06:49:58;13.93;;;8.13;;
60472;SDS011;46318;52.716;6.444;2023-05-01T06:52:24;15.63;;;9.43;;
60472;SDS011;46318;52.716;6.444;2023-05-01T06:54:51;13.63;;;8.77;;
60472;SDS011;46318;52.716;6.444;2023-05-01T06:57:17;12.18;;;8.48;;
60472;SDS011;46318;52.716;6.444;2023-05-01T06:59:43;12.50;;;8.63;;
60472;SDS011;46318;52.716;6.444;2023-05-01T07:02:09;11.68;;;7.72;;
60472;SDS011;46318;52.716;6.444;2023-05-01T07:04:35;10.93;;;8.07;;
60472;SDS011;46318;52.716;6.444;2023-05-01T07:07:01;12.38;;;8.13;;
60472;SDS011;46318;52.716;6.444;2023-05-01T07:09:27;12.98;;;8.05;;
60472;SDS011;46318;52.716;6.444;2023-05-01T07:11:54;14.82;;;8.30;;
60472;SDS011;46318;52.716;6.444;2023-05-01T07:14:23;10.65;;;7.97;;
60472;SDS011;46318;52.716;6.444;2023-05-01T07:16:49;12.15;;;8.60;;
60472;SDS011;46318;52.716;6.444;2023-05-01T07:19:15;10.70;;;8.10;;
60472;SDS011;46318;52.716;6.444;2023-05-01T07:21:40;13.65;;;9.25;;
60472;SDS011;46318;52.716;6.444;2023-05-01T07:24:06;11.40;;;8.15;;
60472;SDS011;46318;52.716;6.444;2023-05-01T07:26:32;9.48;;;7.85;;
60472;SDS011;46318;52.716;6.444;2023-05-01T07:28:59;10.32;;;8.85;;
60472;SDS011;46318;52.716;6.444;2023-05-01T07:31:25;10.30;;;8.35;;
60472;SDS011;46318;52.716;6.444;2023-05-01T07:33:50;13.13;;;8.30;;
60472;SDS011;46318;52.716;6.444;2023-05-01T07:36:17;13.80;;;8.32;;
60472;SDS011;46318;52.716;6.444;2023-05-01T07:38:44;11.40;;;8.05;;
60472;SDS011;46318;52.716;6.444;2023-05-01T07:41:10;11.40;;;8.40;;
60472;SDS011;46318;52.716;6.444;2023-05-01T07:43:36;10.98;;;8.20;;
60472;SDS011;46318;52.716;6.444;2023-05-01T07:46:02;9.95;;;7.85;;
60472;SDS011;46318;52.716;6.444;2023-05-01T07:48:28;11.73;;;7.50;;
60472;SDS011;46318;52.716;6.444;2023-05-01T07:50:54;10.75;;;7.40;;
60472;SDS011;46318;52.716;6.444;2023-05-01T07:53:23;9.85;;;7.50;;
60472;SDS011;46318;52.716;6.444;2023-05-01T07:55:49;10.27;;;7.22;;
60472;SDS011;46318;52.716;6.444;2023-05-01T07:58:15;9.15;;;6.90;;
60472;SDS011;46318;52.716;6.444;2023-05-01T08:00:41;10.68;;;7.50;;
60472;SDS011;46318;52.716;6.444;2023-05-01T08:03:09;12.15;;;8.50;;
60472;SDS011;46318;52.716;6.444;2023-05-01T08:05:38;10.02;;;7.97;;
60472;SDS011;46318;52.716;6.444;2023-05-01T08:08:05;14.48;;;7.82;;
60472;SDS011;46318;52.716;6.444;2023-05-01T08:10:31;11.32;;;7.95;;
60472;SDS011;46318;52.716;6.444;2023-05-01T08:12:57;12.45;;;7.72;;
60472;SDS011;46318;52.716;6.444;2023-05-01T08:15:23;10.73;;;7.32;;
60472;SDS011;46318;52.716;6.444;2023-05-01T08:17:49;10.55;;;7.93;;
60472;SDS011;46318;52.716;6.444;2023-05-01T08:20:15;11.23;;;7.88;;
60472;SDS011;46318;52.716;6.444;2023-05-01T08:22:41;12.35;;;7.63;;
60472;SDS011;46318;52.716;6.444;2023-05-01T08:25:07;10.38;;;7.32;;
60472;SDS011;46318;52.716;6.444;2023-05-01T08:27:33;11.57;;;7.90;;
60472;SDS011;46318;52.716;6.444;2023-05-01T08:29:59;8.85;;;7.20;;
60472;SDS011;46318;52.716;6.444;2023-05-01T08:32:25;9.35;;;7.20;;
60472;SDS011;46318;52.716;6.444;2023-05-01T08:34:51;9.93;;;6.47;;
60472;SDS011;46318;52.716;6.444;2023-05-01T08:37:16;9.15;;;7.25;;
60472;SDS011;46318;52.716;6.444;2023-05-01T08:39:43;11.93;;;7.97;;
60472;SDS011;46318;52.716;6.444;2023-05-01T08:42:09;9.43;;;6.88;;
60472;SDS011;46318;52.716;6.444;2023-05-01T08:44:38;11.73;;;7.57;;
60472;SDS011;46318;52.716;6.444;2023-05-01T08:49:41;13.75;;;7.57;;
60472;SDS011;46318;52.716;6.444;2023-05-01T08:52:12;9.30;;;7.15;;
60472;SDS011;46318;52.716;6.444;2023-05-01T08:54:42;8.68;;;6.57;;
60472;SDS011;46318;52.716;6.444;2023-05-01T08:59:37;8.77;;;6.38;;
60472;SDS011;46318;52.716;6.444;2023-05-01T09:02:05;10.90;;;7.10;;
60472;SDS011;46318;52.716;6.444;2023-05-01T09:04:34;8.25;;;6.40;;
60472;SDS011;46318;52.716;6.444;2023-05-01T09:07:03;8.02;;;6.45;;
60472;SDS011;46318;52.716;6.444;2023-05-01T09:09:29;8.82;;;6.65;;
60472;SDS011;46318;52.716;6.444;2023-05-01T09:11:59;9.27;;;6.40;;
60472;SDS011;46318;52.716;6.444;2023-05-01T09:14:51;10.70;;;6.50;;
60472;SDS011;46318;52.716;6.444;2023-05-01T09:17:19;8.43;;;6.22;;
60472;SDS011;46318;52.716;6.444;2023-05-01T09:19:48;9.02;;;6.20;;
60472;SDS011;46318;52.716;6.444;2023-05-01T09:22:15;10.18;;;5.72;;
60472;SDS011;46318;52.716;6.444;2023-05-01T09:24:43;8.65;;;5.85;;
60472;SDS011;46318;52.716;6.444;2023-05-01T09:27:11;9.60;;;6.28;;
60472;SDS011;46318;52.716;6.444;2023-05-01T09:34:48;9.35;;;6.15;;
60472;SDS011;46318;52.716;6.444;2023-05-01T09:37:32;8.75;;;6.05;;
60472;SDS011;46318;52.716;6.444;2023-05-01T09:42:40;7.75;;;5.97;;
60472;SDS011;46318;52.716;6.444;2023-05-01T09:45:14;9.15;;;5.68;;
60472;SDS011;46318;52.716;6.444;2023-05-01T09:47:41;8.98;;;5.32;;
60472;SDS011;46318;52.716;6.444;2023-05-01T09:50:08;8.23;;;4.93;;
60472;SDS011;46318;52.716;6.444;2023-05-01T09:52:35;9.00;;;5.70;;
60472;SDS011;46318;52.716;6.444;2023-05-01T09:55:10;6.20;;;4.80;;
60472;SDS011;46318;52.716;6.444;2023-05-01T09:57:41;8.38;;;3.95;;
60472;SDS011;46318;52.716;6.444;2023-05-01T10:00:10;5.47;;;3.70;;
60472;SDS011;46318;52.716;6.444;2023-05-01T10:02:38;6.78;;;4.20;;
60472;SDS011;46318;52.716;6.444;2023-05-01T10:05:06;7.75;;;3.55;;
60472;SDS011;46318;52.716;6.444;2023-05-01T10:07:34;5.70;;;3.80;;
60472;SDS011;46318;52.716;6.444;2023-05-01T10:12:42;5.63;;;3.95;;
60472;SDS011;46318;52.716;6.444;2023-05-01T10:15:08;6.03;;;4.05;;
60472;SDS011;46318;52.716;6.444;2023-05-01T10:17:36;9.52;;;3.83;;
60472;SDS011;46318;52.716;6.444;2023-05-01T10:20:04;6.13;;;3.90;;
60472;SDS011;46318;52.716;6.444;2023-05-01T10:22:37;5.95;;;4.65;;
60472;SDS011;46318;52.716;6.444;2023-05-01T10:25:08;5.40;;;4.10;;
60472;SDS011;46318;52.716;6.444;2023-05-01T10:27:38;8.70;;;4.30;;
60472;SDS011;46318;52.716;6.444;2023-05-01T10:30:06;4.55;;;3.20;;
60472;SDS011;46318;52.716;6.444;2023-05-01T10:32:33;5.93;;;3.90;;
60472;SDS011;46318;52.716;6.444;2023-05-01T10:35:03;4.63;;;3.13;;
60472;SDS011;46318;52.716;6.444;2023-05-01T10:53:49;6.27;;;3.93;;
60472;SDS011;46318;52.716;6.444;2023-05-01T10:59:03;6.18;;;3.90;;
60472;SDS011;46318;52.716;6.444;2023-05-01T11:04:02;6.47;;;3.95;;
60472;SDS011;46318;52.716;6.444;2023-05-01T11:06:31;4.53;;;2.72;;
60472;SDS011;46318;52.716;6.444;2023-05-01T11:08:58;6.07;;;3.00;;
60472;SDS011;46318;52.716;6.444;2023-05-01T11:19:06;3.72;;;2.88;;
60472;SDS011;46318;52.716;6.444;2023-05-01T11:21:33;3.63;;;2.20;;
60472;SDS011;46318;52.716;6.444;2023-05-01T11:24:01;4.05;;;2.28;;
60472;SDS011;46318;52.716;6.444;2023-05-01T11:26:28;2.63;;;2.00;;
60472;SDS011;46318;52.716;6.444;2023-05-01T11:28:56;3.25;;;2.00;;
60472;SDS011;46318;52.716;6.444;2023-05-01T11:31:25;3.33;;;2.42;;
60472;SDS011;46318;52.716;6.444;2023-05-01T11:33:59;3.60;;;2.50;;
60472;SDS011;46318;52.716;6.444;2023-05-01T11:36:26;2.63;;;1.90;;
60472;SDS011;46318;52.716;6.444;2023-05-01T11:38:57;3.45;;;2.08;;
60472;SDS011;46318;52.716;6.444;2023-05-01T11:41:27;3.45;;;2.33;;
60472;SDS011;46318;52.716;6.444;2023-05-01T11:43:53;4.93;;;2.10;;
60472;SDS011;46318;52.716;6.444;2023-05-01T11:46:22;3.88;;;2.83;;
60472;SDS011;46318;52.716;6.444;2023-05-01T11:48:55;5.10;;;2.53;;
60472;SDS011;46318;52.716;6.444;2023-05-01T11:51:26;2.60;;;2.10;;
60472;SDS011;46318;52.716;6.444;2023-05-01T11:53:59;3.50;;;2.20;;
60472;SDS011;46318;52.716;6.444;2023-05-01T11:56:29;3.90;;;2.53;;
60472;SDS011;46318;52.716;6.444;2023-05-01T11:58:56;3.20;;;2.10;;
60472;SDS011;46318;52.716;6.444;2023-05-01T12:01:36;3.25;;;2.00;;
60472;SDS011;46318;52.716;6.444;2023-05-01T12:04:05;2.78;;;1.80;;
60472;SDS011;46318;52.716;6.444;2023-05-01T12:06:39;2.53;;;1.90;;
60472;SDS011;46318;52.716;6.444;2023-05-01T12:09:22;3.75;;;1.88;;
60472;SDS011;46318;52.716;6.444;2023-05-01T12:14:17;2.25;;;1.50;;
60472;SDS011;46318;52.716;6.444;2023-05-01T12:16:44;3.45;;;2.08;;
60472;SDS011;46318;52.716;6.444;2023-05-01T12:19:12;2.40;;;1.48;;
60472;SDS011;46318;52.716;6.444;2023-05-01T12:21:39;4.40;;;1.83;;
60472;SDS011;46318;52.716;6.444;2023-05-01T12:24:12;2.58;;;1.92;;
60472;SDS011;46318;52.716;6.444;2023-05-01T12:26:41;4.35;;;1.52;;
60472;SDS011;46318;52.716;6.444;2023-05-01T12:29:10;1.58;;;1.27;;
60472;SDS011;46318;52.716;6.444;2023-05-01T12:31:44;1.50;;;1.40;;
60472;SDS011;46318;52.716;6.444;2023-05-01T12:34:12;2.65;;;1.30;;
60472;SDS011;46318;52.716;6.444;2023-05-01T12:36:38;1.83;;;1.30;;
60472;SDS011;46318;52.716;6.444;2023-05-01T12:39:05;2.30;;;1.30;;
60472;SDS011;46318;52.716;6.444;2023-05-01T12:41:37;1.65;;;1.27;;
60472;SDS011;46318;52.716;6.444;2023-05-01T12:44:25;1.50;;;1.40;;
60472;SDS011;46318;52.716;6.444;2023-05-01T12:49:24;2.45;;;1.30;;
60472;SDS011;46318;52.716;6.444;2023-05-01T12:51:52;2.30;;;1.35;;
60472;SDS011;46318;52.716;6.444;2023-05-01T12:54:25;2.83;;;1.52;;
60472;SDS011;46318;52.716;6.444;2023-05-01T12:56:53;3.45;;;1.45;;
60472;SDS011;46318;52.716;6.444;2023-05-01T12:59:31;2.58;;;1.30;;
60472;SDS011;46318;52.716;6.444;2023-05-01T13:02:00;1.90;;;1.50;;
60472;SDS011;46318;52.716;6.444;2023-05-01T13:04:40;1.70;;;1.30;;
60472;SDS011;46318;52.716;6.444;2023-05-01T13:07:14;2.75;;;1.58;;
60472;SDS011;46318;52.716;6.444;2023-05-01T13:09:51;2.75;;;1.90;;
60472;SDS011;46318;52.716;6.444;2023-05-01T13:12:22;3.03;;;1.70;;
60472;SDS011;46318;52.716;6.444;2023-05-01T13:14:50;2.75;;;1.50;;
60472;SDS011;46318;52.716;6.444;2023-05-01T13:17:22;2.78;;;1.70;;
60472;SDS011;46318;52.716;6.444;2023-05-01T13:19:57;2.00;;;1.42;;
60472;SDS011;46318;52.716;6.444;2023-05-01T13:24:56;2.55;;;1.42;;
60472;SDS011;46318;52.716;6.444;2023-05-01T13:27:23;2.85;;;2.53;;
60472;SDS011;46318;52.716;6.444;2023-05-01T13:29:55;8.88;;;6.28;;
60472;SDS011;46318;52.716;6.444;2023-05-01T13:32:26;7.45;;;5.35;;
60472;SDS011;46318;52.716;6.444;2023-05-01T13:34:52;2.10;;;1.45;;
60472;SDS011;46318;52.716;6.444;2023-05-01T13:37:18;4.55;;;2.80;;
60472;SDS011;46318;52.716;6.444;2023-05-01T13:39:45;5.00;;;4.20;;
60472;SDS011;46318;52.716;6.444;2023-05-01T13:42:12;5.65;;;5.15;;
60472;SDS011;46318;52.716;6.444;2023-05-01T13:44:57;6.50;;;4.18;;
60472;SDS011;46318;52.716;6.444;2023-05-01T13:47:24;6.18;;;3.22;;
60472;SDS011;46318;52.716;6.444;2023-05-01T13:49:50;4.45;;;2.00;;
60472;SDS011;46318;52.716;6.444;2023-05-01T13:52:17;3.53;;;2.03;;
60472;SDS011;46318;52.716;6.444;2023-05-01T13:54:44;4.22;;;2.05;;
60472;SDS011;46318;52.716;6.444;2023-05-01T13:57:11;3.47;;;2.15;;
60472;SDS011;46318;52.716;6.444;2023-05-01T13:59:39;4.60;;;2.92;;
60472;SDS011;46318;52.716;6.444;2023-05-01T14:02:20;3.25;;;2.22;;
60472;SDS011;46318;52.716;6.444;2023-05-01T14:04:52;3.53;;;1.98;;
60472;SDS011;46318;52.716;6.444;2023-05-01T14:07:22;3.22;;;2.00;;
60472;SDS011;46318;52.716;6.444;2023-05-01T14:09:56;3.40;;;2.15;;
60472;SDS011;46318;52.716;6.444;2023-05-01T14:12:30;3.75;;;2.28;;
60472;SDS011;46318;52.716;6.444;2023-05-01T14:14:57;3.10;;;2.58;;
60472;SDS011;46318;52.716;6.444;2023-05-01T14:17:33;4.60;;;2.67;;
60472;SDS011;46318;52.716;6.444;2023-05-01T14:20:01;3.22;;;2.10;;
60472;SDS011;46318;52.716;6.444;2023-05-01T14:23:02;2.08;;;1.75;;
60472;SDS011;46318;52.716;6.444;2023-05-01T14:27:55;2.53;;;1.70;;
60472;SDS011;46318;52.716;6.444;2023-05-01T14:30:28;5.13;;;1.60;;
60472;SDS011;46318;52.716;6.444;2023-05-01T14:32:59;1.77;;;1.30;;
60472;SDS011;46318;52.716;6.444;2023-05-01T14:35:26;3.15;;;2.17;;
60472;SDS011;46318;52.716;6.444;2023-05-01T14:37:53;4.68;;;2.40;;
60472;SDS011;46318;52.716;6.444;2023-05-01T14:40:24;4.07;;;2.78;;
60472;SDS011;46318;52.716;6.444;2023-05-01T14:42:52;5.88;;;3.47;;
60472;SDS011;46318;52.716;6.444;2023-05-01T14:45:21;4.00;;;3.38;;
60472;SDS011;46318;52.716;6.444;2023-05-01T14:47:47;4.78;;;3.00;;
60472;SDS011;46318;52.716;6.444;2023-05-01T14:50:17;5.45;;;3.30;;
60472;SDS011;46318;52.716;6.444;2023-05-01T14:52:46;6.25;;;3.40;;
60472;SDS011;46318;52.716;6.444;2023-05-01T14:55:16;4.82;;;3.50;;
60472;SDS011;46318;52.716;6.444;2023-05-01T14:57:43;4.82;;;3.10;;
60472;SDS011;46318;52.716;6.444;2023-05-01T15:00:10;4.35;;;3.60;;
60472;SDS011;46318;52.716;6.444;2023-05-01T15:02:36;6.10;;;4.05;;
60472;SDS011;46318;52.716;6.444;2023-05-01T15:05:03;5.05;;;3.97;;
60472;SDS011;46318;52.716;6.444;2023-05-01T15:07:29;5.40;;;3.50;;
60472;SDS011;46318;52.716;6.444;2023-05-01T15:09:55;4.25;;;3.30;;
60472;SDS011;46318;52.716;6.444;2023-05-01T15:12:21;5.78;;;3.80;;
60472;SDS011;46318;52.716;6.444;2023-05-01T15:14:47;4.57;;;3.30;;
60472;SDS011;46318;52.716;6.444;2023-05-01T15:17:13;5.25;;;3.30;;
60472;SDS011;46318;52.716;6.444;2023-05-01T15:19:39;6.32;;;3.20;;
60472;SDS011;46318;52.716;6.444;2023-05-01T15:22:05;3.72;;;3.20;;
60472;SDS011;46318;52.716;6.444;2023-05-01T15:24:30;5.22;;;3.72;;
60472;SDS011;46318;52.716;6.444;2023-05-01T15:26:56;6.55;;;3.92;;
60472;SDS011;46318;52.716;6.444;2023-05-01T15:29:22;5.38;;;3.70;;
60472;SDS011;46318;52.716;6.444;2023-05-01T15:31:48;4.28;;;3.40;;
60472;SDS011;46318;52.716;6.444;2023-05-01T15:34:14;6.10;;;3.67;;
60472;SDS011;46318;52.716;6.444;2023-05-01T15:36:39;4.40;;;3.65;;
60472;SDS011;46318;52.716;6.444;2023-05-01T15:39:05;6.05;;;3.70;;
60472;SDS011;46318;52.716;6.444;2023-05-01T15:41:36;5.88;;;3.40;;
60472;SDS011;46318;52.716;6.444;2023-05-01T15:44:02;4.78;;;3.30;;
60472;SDS011;46318;52.716;6.444;2023-05-01T15:46:30;7.20;;;3.65;;
60472;SDS011;46318;52.716;6.444;2023-05-01T15:48:59;6.28;;;3.33;;
60472;SDS011;46318;52.716;6.444;2023-05-01T15:51:25;5.28;;;3.50;;
60472;SDS011;46318;52.716;6.444;2023-05-01T15:53:51;4.90;;;3.40;;
60472;SDS011;46318;52.716;6.444;2023-05-01T15:56:17;4.88;;;3.17;;
60472;SDS011;46318;52.716;6.444;2023-05-01T15:58:42;4.20;;;3.13;;
60472;SDS011;46318;52.716;6.444;2023-05-01T16:01:10;4.90;;;2.78;;
60472;SDS011;46318;52.716;6.444;2023-05-01T16:03:37;3.92;;;3.40;;